Time;durP1;ratioP1;P1;durP2;ratioP2;P2;SDS_P1;SDS_P2;PMS_P1;PMS_P2;Temp;Humidity;BMP_temperature;BMP_pressure;BME280_temperature;BME280_humidity;BME280_pressure;Samples;Min_cycle;Max_cycle;Signal;HPM_P1;HPM_P2
2021/08/10 00:01:33;;;;;;;8.90;6.70;;;16.80;99.90;;;;;;4935090;28;20643;-72
2021/08/10 00:03:58;;;;;;;9.70;7.57;;;16.80;99.90;;;;;;4935772;29;20287;-71
2021/08/10 00:06:24;;;;;;;8.33;7.00;;;16.80;99.90;;;;;;4934810;29;20680;-71
2021/08/10 00:08:49;;;;;;;10.17;7.63;;;16.80;99.90;;;;;;4934890;28;20335;-71
2021/08/10 00:11:15;;;;;;;9.77;6.97;;;16.70;99.90;;;;;;4934006;28;21054;-71
2021/08/10 00:13:41;;;;;;;10.30;7.43;;;16.70;99.90;;;;;;4937046;29;20188;-71
2021/08/10 00:16:06;;;;;;;11.47;7.43;;;16.70;99.90;;;;;;4934787;29;20196;-71
2021/08/10 00:18:32;;;;;;;10.60;7.27;;;16.70;99.90;;;;;;4933941;28;20200;-71
2021/08/10 00:20:57;;;;;;;8.83;6.67;;;16.70;99.90;;;;;;4932606;28;20216;-71
2021/08/10 00:23:25;;;;;;;8.87;7.70;;;16.70;99.90;;;;;;4934237;28;20258;-71
2021/08/10 00:25:51;;;;;;;8.73;6.83;;;16.60;99.90;;;;;;4933583;28;20621;-71
2021/08/10 00:28:19;;;;;;;8.77;7.40;;;16.60;99.90;;;;;;4934906;29;20623;-71
2021/08/10 00:30:44;;;;;;;10.87;7.00;;;16.60;99.90;;;;;;4934540;28;20242;-71
2021/08/10 00:33:14;;;;;;;9.33;7.50;;;16.60;99.90;;;;;;4935726;28;21211;-71
2021/08/10 00:35:39;;;;;;;9.13;7.83;;;16.60;99.90;;;;;;4933555;28;20282;-72
2021/08/10 00:38:07;;;;;;;8.00;7.10;;;16.50;99.90;;;;;;4935874;29;21212;-72
2021/08/10 00:40:33;;;;;;;9.50;7.80;;;16.50;99.90;;;;;;4935108;28;20274;-71
2021/08/10 00:42:59;;;;;;;9.40;7.33;;;16.50;99.90;;;;;;4931901;28;20750;-71
2021/08/10 00:45:24;;;;;;;9.23;7.83;;;16.50;99.90;;;;;;4935179;29;20773;-71
2021/08/10 00:47:50;;;;;;;8.87;6.77;;;16.50;99.90;;;;;;4933956;28;20616;-71
2021/08/10 00:50:18;;;;;;;9.80;7.20;;;16.50;99.90;;;;;;4933921;29;20212;-71
2021/08/10 00:52:45;;;;;;;9.80;7.50;;;16.50;99.90;;;;;;4935654;28;20223;-71
2021/08/10 00:55:15;;;;;;;9.30;7.33;;;16.50;99.90;;;;;;4933736;28;20767;-71
2021/08/10 00:57:41;;;;;;;7.40;6.57;;;16.40;99.90;;;;;;4931070;28;20711;-71
2021/08/10 01:00:12;;;;;;;8.50;7.33;;;16.40;99.90;;;;;;4934411;28;21109;-71
2021/08/10 01:02:40;;;;;;;8.03;7.23;;;16.40;99.90;;;;;;4933053;28;20640;-71
2021/08/10 01:05:12;;;;;;;7.97;6.77;;;16.40;99.90;;;;;;4936043;28;24658;-71
2021/08/10 01:07:44;;;;;;;7.63;6.83;;;16.40;99.90;;;;;;4935252;29;21283;-71
2021/08/10 01:10:22;;;;;;;8.50;7.37;;;16.30;99.90;;;;;;4935858;29;20671;-71
2021/08/10 01:13:30;;;;;;;9.00;7.57;;;16.30;99.90;;;;;;4930872;28;20651;-71
2021/08/10 01:16:11;;;;;;;8.57;7.67;;;16.30;99.90;;;;;;4934391;29;20817;-71
2021/08/10 01:18:47;;;;;;;8.30;7.10;;;16.30;99.90;;;;;;4931931;28;21264;-71
2021/08/10 01:21:39;;;;;;;8.73;6.83;;;16.30;99.90;;;;;;4931670;28;20623;-71
2021/08/10 01:24:17;;;;;;;8.30;7.13;;;16.20;99.90;;;;;;4932019;29;20761;-71
2021/08/10 01:27:20;;;;;;;7.33;6.40;;;16.20;99.90;;;;;;4932237;29;20746;-71
2021/08/10 01:30:27;;;;;;;8.93;7.03;;;16.20;99.90;;;;;;4933393;28;20749;-71
2021/08/10 01:32:55;;;;;;;8.20;6.67;;;16.10;99.90;;;;;;4931988;29;21017;-71
2021/08/10 01:35:23;;;;;;;7.67;6.70;;;16.10;99.90;;;;;;4934355;29;21431;-72
2021/08/10 01:38:01;;;;;;;7.67;6.50;;;16.00;99.90;;;;;;4936796;29;20623;-71
2021/08/10 01:40:29;;;;;;;8.63;6.80;;;16.00;99.90;;;;;;4943544;28;24494;-71
2021/08/10 01:42:59;;;;;;;9.53;6.93;;;16.00;99.90;;;;;;4920759;29;22188;-71
2021/08/10 01:45:25;;;;;;;8.13;7.07;;;16.00;99.90;;;;;;4934887;29;20659;-71
2021/08/10 01:47:55;;;;;;;8.17;7.07;;;16.00;99.90;;;;;;4916914;29;20639;-71
2021/08/10 01:50:23;;;;;;;7.30;6.63;;;16.00;99.90;;;;;;4935154;28;20662;-71
2021/08/10 01:52:49;;;;;;;7.80;6.33;;;16.00;99.90;;;;;;4930136;28;20651;-71
2021/08/10 01:55:20;;;;;;;6.90;6.03;;;16.00;99.90;;;;;;4917722;29;20703;-71
2021/08/10 01:57:47;;;;;;;8.43;7.43;;;15.90;99.90;;;;;;4935797;29;20726;-71
2021/08/10 02:00:13;;;;;;;6.43;5.83;;;15.90;99.90;;;;;;4938207;28;20672;-71
2021/08/10 02:02:45;;;;;;;7.30;6.10;;;15.90;99.90;;;;;;4920223;29;20665;-71
2021/08/10 02:05:11;;;;;;;7.70;6.90;;;15.90;99.90;;;;;;4932447;29;20701;-71
2021/08/10 02:07:38;;;;;;;8.43;7.63;;;15.90;99.90;;;;;;4934765;28;20627;-71
2021/08/10 02:10:04;;;;;;;7.83;6.60;;;15.90;99.90;;;;;;4937174;29;20673;-71
2021/08/10 02:12:30;;;;;;;10.30;7.10;;;15.90;99.90;;;;;;4929741;28;20632;-71
2021/08/10 02:15:02;;;;;;;7.53;6.77;;;15.90;99.90;;;;;;4931096;29;20652;-71
2021/08/10 02:17:27;;;;;;;6.83;6.03;;;15.80;99.90;;;;;;4935012;29;20200;-71
2021/08/10 02:19:53;;;;;;;6.70;6.00;;;15.80;99.90;;;;;;4932430;29;20689;-71
2021/08/10 02:22:19;;;;;;;7.80;6.43;;;15.80;99.90;;;;;;4932073;28;20302;-71
2021/08/10 02:25:05;;;;;;;7.77;7.00;;;15.80;99.90;;;;;;4936832;29;20212;-73
2021/08/10 02:27:39;;;;;;;8.17;6.83;;;15.80;99.90;;;;;;4930497;28;20976;-71
2021/08/10 02:30:11;;;;;;;8.07;7.27;;;15.80;99.90;;;;;;4933006;28;21027;-71
2021/08/10 02:32:38;;;;;;;8.03;7.23;;;15.80;99.90;;;;;;4931863;28;21012;-71
2021/08/10 02:35:07;;;;;;;7.87;6.70;;;15.80;99.90;;;;;;4932574;29;20841;-72
2021/08/10 02:37:37;;;;;;;8.00;6.63;;;15.70;99.90;;;;;;4930902;29;20987;-71
2021/08/10 02:40:09;;;;;;;8.07;7.27;;;15.70;99.90;;;;;;4930604;29;21243;-71
2021/08/10 02:42:36;;;;;;;7.93;7.13;;;15.70;99.90;;;;;;4933597;28;21471;-71
2021/08/10 02:45:02;;;;;;;8.47;7.10;;;15.70;99.90;;;;;;4931661;29;20678;-71
2021/08/10 02:47:28;;;;;;;7.20;6.50;;;15.70;99.90;;;;;;4931230;29;21200;-71
2021/08/10 02:49:57;;;;;;;8.43;7.27;;;15.70;99.90;;;;;;4930484;28;20666;-71
2021/08/10 02:52:23;;;;;;;6.57;5.97;;;15.80;99.90;;;;;;4929661;28;20643;-71
2021/08/10 02:54:48;;;;;;;7.77;6.43;;;15.70;99.90;;;;;;4931946;28;20651;-71
2021/08/10 02:57:26;;;;;;;7.07;6.37;;;15.70;99.90;;;;;;4932678;29;20260;-71
2021/08/10 02:59:58;;;;;;;7.73;7.00;;;15.70;99.90;;;;;;4933217;28;20650;-71
2021/08/10 03:02:31;;;;;;;6.63;6.03;;;15.60;99.90;;;;;;4932139;28;20685;-72
2021/08/10 03:05:12;;;;;;;8.80;7.50;;;15.60;99.90;;;;;;4929769;29;20694;-71
2021/08/10 03:07:44;;;;;;;7.17;6.47;;;15.70;99.90;;;;;;4934716;29;20610;-71
2021/08/10 03:10:11;;;;;;;6.83;6.13;;;15.70;99.90;;;;;;4934281;29;20746;-71
2021/08/10 03:12:44;;;;;;;8.40;6.70;;;15.60;99.90;;;;;;4935590;28;21154;-73
2021/08/10 03:15:12;;;;;;;6.50;5.83;;;15.60;99.90;;;;;;4938171;29;20681;-71
2021/08/10 03:17:39;;;;;;;8.00;6.00;;;15.60;99.90;;;;;;4940005;29;20728;-71
2021/08/10 03:20:06;;;;;;;7.00;6.00;;;15.70;99.90;;;;;;4939510;28;21118;-70
2021/08/10 03:22:34;;;;;;;7.43;6.30;;;15.70;99.90;;;;;;4936506;28;21222;-71
2021/08/10 03:25:01;;;;;;;6.10;5.60;;;15.60;99.90;;;;;;4938719;29;21223;-71
2021/08/10 03:27:29;;;;;;;5.93;5.43;;;15.60;99.90;;;;;;4940503;29;20642;-73
2021/08/10 03:29:56;;;;;;;6.67;5.93;;;15.70;99.90;;;;;;4942709;29;20660;-70
2021/08/10 03:32:22;;;;;;;6.53;5.33;;;15.70;99.90;;;;;;4936104;28;20638;-71
2021/08/10 03:34:48;;;;;;;6.67;6.07;;;15.70;99.90;;;;;;4937812;29;21183;-72
2021/08/10 03:37:16;;;;;;;6.90;6.20;;;15.70;99.90;;;;;;4938152;29;20623;-73
2021/08/10 03:39:44;;;;;;;6.60;6.00;;;15.70;99.90;;;;;;4937303;28;20689;-71
2021/08/10 03:42:13;;;;;;;7.67;6.50;;;15.70;99.90;;;;;;4932700;28;21261;-70
2021/08/10 03:44:42;;;;;;;7.10;6.30;;;15.70;99.90;;;;;;4935274;29;20638;-71
2021/08/10 03:47:14;;;;;;;7.30;5.90;;;15.70;99.90;;;;;;4937079;29;20623;-71
2021/08/10 03:49:40;;;;;;;7.90;6.00;;;15.70;99.90;;;;;;4938558;29;20657;-71
2021/08/10 03:52:08;;;;;;;7.83;7.03;;;15.70;99.90;;;;;;4937094;28;20653;-72
2021/08/10 03:54:35;;;;;;;7.70;5.97;;;15.70;99.90;;;;;;4947442;29;20697;-73
2021/08/10 03:57:00;;;;;;;7.93;6.70;;;15.70;99.90;;;;;;4937826;29;21170;-73
2021/08/10 03:59:30;;;;;;;6.93;6.33;;;15.70;99.90;;;;;;4938532;29;20706;-70
2021/08/10 04:01:56;;;;;;;6.63;6.03;;;15.70;99.90;;;;;;4938867;28;20590;-72
2021/08/10 04:04:23;;;;;;;6.50;5.73;;;15.70;99.90;;;;;;4936943;29;20626;-72
2021/08/10 04:06:49;;;;;;;6.10;5.50;;;15.80;99.90;;;;;;4935811;29;20654;-72
2021/08/10 04:09:16;;;;;;;6.10;5.60;;;15.70;99.90;;;;;;4935121;29;20750;-72
2021/08/10 04:11:42;;;;;;;7.33;5.83;;;15.70;99.90;;;;;;4935017;28;20298;-72
2021/08/10 04:14:08;;;;;;;6.40;5.80;;;15.70;99.90;;;;;;4935000;29;21159;-72
2021/08/10 04:17:04;;;;;;;6.50;5.90;;;15.70;99.90;;;;;;4947083;28;20646;-73
2021/08/10 04:19:48;;;;;;;6.60;5.57;;;15.80;99.90;;;;;;4938123;29;21165;-71
2021/08/10 04:22:14;;;;;;;5.80;5.20;;;15.80;99.90;;;;;;4940025;28;20634;-71
2021/08/10 04:24:44;;;;;;;6.30;5.70;;;15.80;99.90;;;;;;4937800;29;20615;-71
2021/08/10 04:27:14;;;;;;;8.07;5.50;;;15.80;99.90;;;;;;4935358;29;20188;-71
2021/08/10 04:29:40;;;;;;;6.03;5.53;;;15.80;99.90;;;;;;4937376;28;20659;-71
2021/08/10 04:32:07;;;;;;;5.50;5.00;;;15.80;99.90;;;;;;4935011;28;20647;-71
2021/08/10 04:34:35;;;;;;;9.90;6.47;;;15.80;99.90;;;;;;4937821;29;20192;-71
2021/08/10 04:37:04;;;;;;;6.57;5.87;;;15.80;99.90;;;;;;4939524;29;20630;-71
2021/08/10 04:39:30;;;;;;;6.90;5.97;;;15.80;99.90;;;;;;4934047;28;20749;-71
2021/08/10 04:41:56;;;;;;;8.17;5.47;;;15.90;99.90;;;;;;4933372;28;20642;-71
2021/08/10 04:44:22;;;;;;;5.43;4.93;;;15.90;99.90;;;;;;4940004;29;20622;-71
2021/08/10 04:46:48;;;;;;;5.83;5.23;;;15.90;99.90;;;;;;4935130;29;20215;-71
2021/08/10 04:49:14;;;;;;;5.10;4.70;;;15.90;99.90;;;;;;4935457;29;20211;-71
2021/08/10 04:51:39;;;;;;;6.20;5.40;;;15.90;99.90;;;;;;4936362;28;20631;-71
2021/08/10 04:54:05;;;;;;;5.10;4.70;;;15.90;99.90;;;;;;4936041;28;20314;-71
2021/08/10 04:56:30;;;;;;;5.87;5.27;;;16.00;99.90;;;;;;4939499;28;20200;-70
2021/08/10 04:58:56;;;;;;;6.63;5.40;;;16.00;99.90;;;;;;4942469;28;20211;-71
2021/08/10 05:01:24;;;;;;;6.70;5.10;;;16.00;99.90;;;;;;4940941;28;20204;-72
2021/08/10 05:03:50;;;;;;;6.23;4.77;;;16.00;99.90;;;;;;4941259;29;20195;-72
2021/08/10 05:06:17;;;;;;;5.67;5.20;;;16.00;99.90;;;;;;4935123;29;20749;-71
2021/08/10 05:08:45;;;;;;;7.67;5.40;;;16.00;99.90;;;;;;4937682;28;20203;-70
2021/08/10 05:11:12;;;;;;;5.80;5.20;;;16.10;99.90;;;;;;4936766;28;20635;-70
2021/08/10 05:13:39;;;;;;;5.53;5.00;;;16.10;99.90;;;;;;4939511;28;20647;-72
2021/08/10 05:16:07;;;;;;;5.80;5.30;;;16.10;99.90;;;;;;4932516;28;21030;-71
2021/08/10 05:18:35;;;;;;;6.03;5.47;;;16.10;99.90;;;;;;4922905;28;21800;-71
2021/08/10 05:21:07;;;;;;;6.73;5.30;;;16.20;99.90;;;;;;4934658;28;20639;-71
2021/08/10 05:23:35;;;;;;;6.03;5.40;;;16.20;99.90;;;;;;4934496;28;20717;-71
2021/08/10 05:26:00;;;;;;;6.00;5.40;;;16.20;99.90;;;;;;4936159;28;21203;-71
2021/08/10 05:28:26;;;;;;;6.77;6.10;;;16.20;99.90;;;;;;4934606;28;20618;-71
2021/08/10 05:30:53;;;;;;;7.70;5.40;;;16.20;99.90;;;;;;4938611;28;20218;-71
2021/08/10 05:33:19;;;;;;;6.57;5.93;;;16.20;99.90;;;;;;4937526;28;20250;-71
2021/08/10 05:35:47;;;;;;;6.53;5.80;;;16.30;99.90;;;;;;4938111;28;20755;-71
2021/08/10 05:38:12;;;;;;;7.30;5.70;;;16.20;99.90;;;;;;4941612;28;20203;-71
2021/08/10 05:40:37;;;;;;;6.77;6.17;;;16.30;99.90;;;;;;4968153;28;20758;-71
2021/08/10 05:43:03;;;;;;;8.80;6.13;;;16.30;99.90;;;;;;4939938;28;20771;-71
2021/08/10 05:45:29;;;;;;;7.00;6.30;;;16.30;99.90;;;;;;4936211;28;20238;-71
2021/08/10 05:47:54;;;;;;;6.20;5.60;;;16.30;99.90;;;;;;4938906;29;20267;-71
2021/08/10 05:50:20;;;;;;;6.70;6.10;;;16.30;99.90;;;;;;4940865;28;20295;-71
2021/08/10 05:52:48;;;;;;;7.67;6.03;;;16.30;99.90;;;;;;4939224;28;20584;-71
2021/08/10 05:55:13;;;;;;;6.30;5.70;;;16.40;99.90;;;;;;4938285;29;20274;-71
2021/08/10 05:57:39;;;;;;;7.27;6.57;;;16.40;99.90;;;;;;4937545;29;20745;-71
2021/08/10 06:00:07;;;;;;;10.33;7.07;;;16.40;99.90;;;;;;4941656;28;20237;-71
2021/08/10 06:02:35;;;;;;;7.17;6.20;;;16.40;99.90;;;;;;4933010;28;20606;-71
2021/08/10 06:05:00;;;;;;;9.00;6.13;;;16.40;99.90;;;;;;4938781;28;20675;-71
2021/08/10 06:07:26;;;;;;;8.10;7.30;;;16.50;99.90;;;;;;4941407;28;21234;-71
2021/08/10 06:09:51;;;;;;;7.77;7.07;;;16.40;99.90;;;;;;4938277;29;20247;-71
2021/08/10 06:12:17;;;;;;;7.50;6.80;;;16.50;99.90;;;;;;4938054;28;20341;-71
2021/08/10 06:14:42;;;;;;;7.30;6.60;;;16.50;99.90;;;;;;4941825;28;20179;-71
2021/08/10 06:17:08;;;;;;;7.37;6.67;;;16.50;99.90;;;;;;4941929;28;20283;-71
2021/08/10 06:19:33;;;;;;;8.40;6.27;;;16.50;99.90;;;;;;4939708;28;20641;-71
2021/08/10 06:21:59;;;;;;;10.03;6.97;;;16.60;99.90;;;;;;4938685;28;20757;-70
2021/08/10 06:24:27;;;;;;;7.60;6.23;;;16.60;99.90;;;;;;4950202;28;20188;-71
2021/08/10 06:26:53;;;;;;;7.53;5.90;;;16.60;99.90;;;;;;4940043;29;20207;-71
2021/08/10 06:29:18;;;;;;;6.93;6.30;;;16.60;99.90;;;;;;4939107;28;20661;-71
2021/08/10 06:31:44;;;;;;;6.50;5.87;;;16.70;99.90;;;;;;4936592;28;20335;-71
2021/08/10 06:34:09;;;;;;;7.23;6.50;;;16.70;99.90;;;;;;4942176;29;20262;-71
2021/08/10 06:36:35;;;;;;;7.53;5.93;;;16.80;99.90;;;;;;4949067;29;20255;-71
2021/08/10 06:39:02;;;;;;;6.80;6.00;;;16.80;99.90;;;;;;4939868;29;20200;-71
2021/08/10 06:41:27;;;;;;;7.03;6.00;;;16.80;99.90;;;;;;4941720;28;20619;-71
2021/08/10 06:43:53;;;;;;;6.60;5.50;;;16.70;99.90;;;;;;4942335;29;20717;-71
2021/08/10 06:46:18;;;;;;;5.60;5.10;;;16.80;99.90;;;;;;4943199;29;20656;-71
2021/08/10 06:48:44;;;;;;;6.27;4.67;;;16.80;99.90;;;;;;4942203;29;20180;-71
2021/08/10 06:51:10;;;;;;;6.73;5.50;;;16.80;99.90;;;;;;4941740;28;20305;-71
2021/08/10 06:53:36;;;;;;;6.30;5.70;;;16.80;99.90;;;;;;4955344;29;20642;-71
2021/08/10 06:56:01;;;;;;;6.80;5.67;;;16.90;99.90;;;;;;4947242;28;20989;-71
2021/08/10 06:58:27;;;;;;;9.70;5.67;;;17.00;99.90;;;;;;4941379;28;20267;-71
2021/08/10 07:00:52;;;;;;;8.60;5.33;;;16.90;99.90;;;;;;4942468;29;20322;-71
2021/08/10 07:03:18;;;;;;;7.70;5.27;;;17.00;99.90;;;;;;4941685;28;20227;-71
2021/08/10 07:05:43;;;;;;;6.43;5.20;;;17.00;99.90;;;;;;4940388;28;20214;-71
2021/08/10 07:08:09;;;;;;;8.17;5.40;;;17.00;99.90;;;;;;4943370;29;20219;-71
2021/08/10 07:10:34;;;;;;;8.70;5.70;;;17.00;99.90;;;;;;4941794;28;20636;-71
2021/08/10 07:13:00;;;;;;;5.77;5.17;;;17.10;99.90;;;;;;4941078;28;20227;-71
2021/08/10 07:15:25;;;;;;;6.60;5.07;;;17.10;99.90;;;;;;4941915;28;20738;-71
2021/08/10 07:17:51;;;;;;;6.57;5.93;;;17.10;99.90;;;;;;4942794;28;20192;-72
2021/08/10 07:20:16;;;;;;;7.40;6.60;;;17.10;99.90;;;;;;4948227;28;20296;-71
2021/08/10 07:22:42;;;;;;;10.80;7.43;;;17.20;99.90;;;;;;4937644;28;20233;-72
2021/08/10 07:25:08;;;;;;;15.63;12.27;;;17.20;99.90;;;;;;4944962;29;20274;-71
2021/08/10 07:27:34;;;;;;;19.73;14.50;;;17.30;99.90;;;;;;4947654;29;20198;-71
2021/08/10 07:30:00;;;;;;;21.10;16.60;;;17.30;99.90;;;;;;4943987;29;20649;-71
2021/08/10 07:32:25;;;;;;;21.13;17.30;;;17.30;99.90;;;;;;4940437;28;20366;-71
2021/08/10 07:34:51;;;;;;;20.47;17.33;;;17.40;99.90;;;;;;4940929;29;20726;-71
2021/08/10 07:37:17;;;;;;;15.13;13.50;;;17.50;99.90;;;;;;4942447;29;20611;-72
2021/08/10 07:39:42;;;;;;;11.03;9.93;;;17.40;99.90;;;;;;4942509;28;20227;-71
2021/08/10 07:42:08;;;;;;;12.00;8.73;;;17.50;99.90;;;;;;4941910;28;20598;-72
2021/08/10 07:44:33;;;;;;;12.13;8.20;;;17.50;99.90;;;;;;4940879;28;20283;-71
2021/08/10 07:46:59;;;;;;;6.50;5.90;;;17.60;99.90;;;;;;4941051;29;20216;-71
2021/08/10 07:49:25;;;;;;;7.20;6.43;;;17.60;99.90;;;;;;4942025;29;20220;-71
2021/08/10 07:51:50;;;;;;;7.03;6.30;;;17.70;99.90;;;;;;4941400;28;20314;-71
2021/08/10 07:54:16;;;;;;;5.90;5.30;;;17.80;99.90;;;;;;4941622;28;20195;-71
2021/08/10 07:56:41;;;;;;;6.93;6.20;;;17.80;99.90;;;;;;4945613;28;20195;-71
2021/08/10 07:59:07;;;;;;;6.20;5.60;;;17.90;99.90;;;;;;4949224;28;20746;-71
2021/08/10 08:01:32;;;;;;;6.13;5.50;;;17.80;99.90;;;;;;4941883;28;20770;-72
2021/08/10 08:03:58;;;;;;;7.70;5.77;;;17.70;99.90;;;;;;4943025;29;20191;-71
2021/08/10 08:06:23;;;;;;;6.70;5.20;;;17.80;99.90;;;;;;4941407;28;20695;-71
2021/08/10 08:08:49;;;;;;;14.23;5.17;;;17.90;99.90;;;;;;4943423;28;20203;-71
2021/08/10 08:11:14;;;;;;;5.47;4.97;;;17.90;99.90;;;;;;4946350;28;20206;-71
2021/08/10 08:13:40;;;;;;;6.07;5.20;;;18.00;99.90;;;;;;4943246;28;20271;-71
2021/08/10 08:16:06;;;;;;;6.23;5.10;;;18.10;99.90;;;;;;4942416;29;20601;-71
2021/08/10 08:18:31;;;;;;;7.00;5.23;;;18.20;99.90;;;;;;4942816;28;20203;-71
2021/08/10 08:20:57;;;;;;;8.33;4.80;;;18.20;99.90;;;;;;4942684;28;20212;-72
2021/08/10 08:23:26;;;;;;;5.23;4.50;;;18.30;99.90;;;;;;4939143;28;20295;-71
2021/08/10 08:25:52;;;;;;;6.10;5.27;;;18.30;99.90;;;;;;4942042;29;20231;-71
2021/08/10 08:28:19;;;;;;;6.30;5.70;;;18.30;99.90;;;;;;4940519;28;21187;-71
2021/08/10 08:30:44;;;;;;;5.83;5.30;;;18.30;99.90;;;;;;4941321;28;20650;-71
2021/08/10 08:33:11;;;;;;;7.43;6.00;;;18.30;99.90;;;;;;4941030;28;20647;-72
2021/08/10 08:35:38;;;;;;;7.00;5.60;;;18.20;99.90;;;;;;4941306;29;20251;-72
2021/08/10 08:38:05;;;;;;;6.23;5.10;;;18.20;99.90;;;;;;4940031;29;20615;-72
2021/08/10 08:40:30;;;;;;;7.10;5.20;;;18.30;99.90;;;;;;4941329;28;20662;-72
2021/08/10 08:42:56;;;;;;;8.03;5.40;;;18.30;99.90;;;;;;4940670;28;20674;-72
2021/08/10 08:45:22;;;;;;;7.03;5.97;;;18.40;99.90;;;;;;4942399;29;20235;-71
2021/08/10 08:47:52;;;;;;;8.50;5.37;;;18.60;99.90;;;;;;4941716;29;20184;-71
2021/08/10 08:50:19;;;;;;;6.83;5.20;;;18.60;99.90;;;;;;4939363;29;20263;-71
2021/08/10 08:52:49;;;;;;;16.30;5.87;;;18.70;99.90;;;;;;4941625;28;20718;-71
2021/08/10 08:55:16;;;;;;;5.53;4.70;;;18.80;99.90;;;;;;4942233;29;20710;-71
2021/08/10 08:57:42;;;;;;;9.37;6.27;;;18.90;99.90;;;;;;4941520;29;20797;-72
2021/08/10 09:00:10;;;;;;;6.33;5.17;;;19.00;99.90;;;;;;4939882;28;20713;-72
2021/08/10 09:02:36;;;;;;;7.30;5.53;;;19.10;99.90;;;;;;4939737;28;21163;-72
2021/08/10 09:05:03;;;;;;;6.63;5.60;;;19.10;99.90;;;;;;4938118;28;20656;-71
2021/08/10 09:07:30;;;;;;;7.97;5.30;;;19.10;99.90;;;;;;4942464;28;20667;-72
2021/08/10 09:10:13;;;;;;;5.13;4.67;;;19.20;99.90;;;;;;4939445;28;20666;-72
2021/08/10 09:12:54;;;;;;;6.87;4.60;;;19.20;99.90;;;;;;4940905;28;20639;-72
2021/08/10 09:15:32;;;;;;;6.47;5.10;;;19.30;99.90;;;;;;4939148;29;20587;-71
2021/08/10 09:18:20;;;;;;;4.80;4.30;;;19.40;99.90;;;;;;4939880;29;20985;-71
2021/08/10 09:21:08;;;;;;;6.27;4.93;;;19.40;99.90;;;;;;4939693;28;21739;-71
2021/08/10 09:23:55;;;;;;;5.83;4.80;;;19.50;99.90;;;;;;4939104;28;20970;-71
2021/08/10 09:26:23;;;;;;;6.70;4.47;;;19.50;99.90;;;;;;4939756;29;20655;-71
2021/08/10 09:28:55;;;;;;;8.80;5.67;;;19.60;99.90;;;;;;4940078;28;20615;-71
2021/08/10 09:31:37;;;;;;;5.90;4.70;;;19.60;99.90;;;;;;4938626;28;20639;-71
2021/08/10 09:34:04;;;;;;;6.30;4.77;;;19.60;99.90;;;;;;4941911;29;20611;-71
2021/08/10 09:36:31;;;;;;;8.83;5.47;;;19.70;99.90;;;;;;4949121;29;20635;-71
2021/08/10 09:38:57;;;;;;;5.10;4.60;;;19.70;99.90;;;;;;4941538;29;20735;-71
2021/08/10 09:41:27;;;;;;;6.30;4.53;;;19.80;99.90;;;;;;4940493;28;20626;-71
2021/08/10 09:44:18;;;;;;;5.63;4.37;;;19.80;99.90;;;;;;4938977;28;20619;-71
2021/08/10 09:46:48;;;;;;;7.27;4.30;;;19.90;99.90;;;;;;4940459;29;20693;-72
2021/08/10 09:49:15;;;;;;;5.67;4.43;;;20.00;99.90;;;;;;4938064;28;20738;-71
2021/08/10 09:51:43;;;;;;;4.53;3.90;;;20.00;99.90;;;;;;4941971;28;20623;-72
2021/08/10 09:54:12;;;;;;;4.70;4.30;;;20.10;99.90;;;;;;4939543;29;20979;-71
2021/08/10 09:56:51;;;;;;;6.73;5.00;;;20.10;99.90;;;;;;4939518;29;20963;-72
2021/08/10 09:59:20;;;;;;;7.10;4.57;;;20.20;99.90;;;;;;4940257;28;20743;-72
2021/08/10 10:01:51;;;;;;;4.63;4.13;;;20.30;99.90;;;;;;4939293;28;20650;-71
2021/08/10 10:04:19;;;;;;;5.87;4.90;;;20.40;99.90;;;;;;4939871;29;20610;-72
2021/08/10 10:06:47;;;;;;;6.07;4.90;;;20.50;99.90;;;;;;4938555;28;20663;-71
2021/08/10 10:09:13;;;;;;;5.57;5.10;;;20.50;99.90;;;;;;4939228;28;20686;-72
2021/08/10 10:11:40;;;;;;;5.87;5.07;;;20.60;99.90;;;;;;4934959;28;20635;-72
2021/08/10 10:14:07;;;;;;;6.43;4.83;;;20.70;99.90;;;;;;4942809;28;20623;-71
2021/08/10 10:16:33;;;;;;;6.93;4.93;;;20.80;99.90;;;;;;4942571;29;20635;-72
2021/08/10 10:19:05;;;;;;;6.50;5.63;;;20.80;99.90;;;;;;4940480;28;20736;-72
2021/08/10 10:21:32;;;;;;;8.47;5.67;;;20.80;99.90;;;;;;4939992;28;21899;-72
2021/08/10 10:24:02;;;;;;;6.20;5.60;;;20.80;99.90;;;;;;4941004;29;21183;-72
2021/08/10 10:26:39;;;;;;;6.30;5.70;;;21.00;99.90;;;;;;4939340;28;20711;-71
2021/08/10 10:29:05;;;;;;;6.83;6.23;;;21.10;99.90;;;;;;4937974;28;24347;-72
2021/08/10 10:31:32;;;;;;;6.70;6.10;;;21.00;99.90;;;;;;4941887;28;20569;-72
2021/08/10 10:33:58;;;;;;;6.20;5.80;;;21.10;99.90;;;;;;4939061;29;20216;-72
2021/08/10 10:36:24;;;;;;;6.57;6.00;;;21.20;99.90;;;;;;4937519;28;20634;-72
2021/08/10 10:38:54;;;;;;;7.17;5.90;;;21.30;99.90;;;;;;4947750;29;20644;-72
2021/08/10 10:41:21;;;;;;;6.43;5.90;;;21.30;99.90;;;;;;4936507;28;20607;-71
2021/08/10 10:43:51;;;;;;;6.63;5.93;;;21.50;99.90;;;;;;4938982;28;20631;-72
2021/08/10 10:46:31;;;;;;;6.90;6.30;;;21.70;99.90;;;;;;4938565;29;20638;-71
2021/08/10 10:48:58;;;;;;;6.70;6.30;;;21.80;99.90;;;;;;4943112;28;20651;-72
2021/08/10 10:51:29;;;;;;;7.20;6.70;;;21.90;99.90;;;;;;4936666;28;20624;-72
2021/08/10 10:54:27;;;;;;;7.20;6.70;;;21.90;99.90;;;;;;4947843;28;20619;-72
2021/08/10 10:56:59;;;;;;;7.20;6.70;;;22.00;99.90;;;;;;4950820;29;20581;-72
2021/08/10 10:59:35;;;;;;;7.30;6.77;;;22.10;99.90;;;;;;4942960;28;20743;-72
2021/08/10 11:02:11;;;;;;;7.43;6.73;;;22.00;99.90;;;;;;4936587;28;20619;-69
2021/08/10 11:04:37;;;;;;;6.80;6.20;;;22.00;99.90;;;;;;4936394;29;20615;-73
2021/08/10 11:07:33;;;;;;;6.13;5.60;;;22.00;99.90;;;;;;4935480;29;20660;-70
2021/08/10 11:09:59;;;;;;;6.93;6.33;;;22.10;99.90;;;;;;4941144;28;20236;-70
2021/08/10 11:12:41;;;;;;;7.07;6.47;;;22.20;99.90;;;;;;4935897;28;21212;-73
2021/08/10 11:15:07;;;;;;;6.50;5.90;;;22.20;99.90;;;;;;4940009;29;20194;-70
2021/08/10 11:17:35;;;;;;;5.93;5.40;;;22.10;99.90;;;;;;4936345;29;20834;-71
2021/08/10 11:20:21;;;;;;;5.83;5.23;;;22.10;99.90;;;;;;4937649;28;20647;-70
2021/08/10 11:22:47;;;;;;;6.10;5.60;;;21.90;99.90;;;;;;4939217;28;20631;-71
2021/08/10 11:25:23;;;;;;;6.37;5.80;;;21.70;99.90;;;;;;4937857;29;21187;-71
2021/08/10 11:27:49;;;;;;;7.30;6.23;;;21.60;99.90;;;;;;4940132;29;20187;-71
2021/08/10 11:30:20;;;;;;;6.20;5.60;;;21.40;99.90;;;;;;4938908;28;20654;-71
2021/08/10 11:32:48;;;;;;;7.30;6.60;;;21.40;99.90;;;;;;4941147;28;20737;-71
2021/08/10 11:35:30;;;;;;;6.77;6.20;;;21.30;99.90;;;;;;4939008;29;20623;-71
2021/08/10 11:38:19;;;;;;;6.87;6.27;;;21.20;99.90;;;;;;4930898;28;22478;-71
2021/08/10 11:41:02;;;;;;;8.13;7.33;;;21.10;99.90;;;;;;4939656;28;20656;-72
2021/08/10 11:43:48;;;;;;;8.80;8.10;;;20.90;99.90;;;;;;4936900;28;20791;-71
2021/08/10 11:46:26;;;;;;;9.37;8.40;;;20.80;99.90;;;;;;4936477;29;21206;-71
2021/08/10 11:48:57;;;;;;;9.93;9.03;;;20.60;99.90;;;;;;4937270;28;20627;-71
2021/08/10 11:51:35;;;;;;;8.00;7.30;;;20.60;99.90;;;;;;4935236;28;20624;-71
2021/08/10 11:54:09;;;;;;;6.80;6.20;;;20.40;99.90;;;;;;4935641;28;20675;-72
2021/08/10 11:56:41;;;;;;;8.00;7.30;;;20.30;99.90;;;;;;4941410;29;20626;-71
2021/08/10 11:59:17;;;;;;;7.33;6.63;;;20.30;99.90;;;;;;4936512;28;21562;-72
2021/08/10 12:01:44;;;;;;;7.77;6.80;;;20.30;99.90;;;;;;4935987;28;20654;-71
2021/08/10 12:04:21;;;;;;;8.20;6.90;;;20.30;99.90;;;;;;4931294;28;20760;-72
2021/08/10 12:06:55;;;;;;;8.47;7.67;;;20.20;99.90;;;;;;4933045;28;20757;-73
2021/08/10 12:09:36;;;;;;;9.30;8.40;;;20.20;99.90;;;;;;4934896;28;20658;-73
2021/08/10 12:12:04;;;;;;;8.67;7.77;;;20.20;99.90;;;;;;4937740;28;20754;-73
2021/08/10 12:14:31;;;;;;;8.97;8.20;;;20.10;99.90;;;;;;4935809;29;20628;-73
2021/08/10 12:17:06;;;;;;;9.90;8.53;;;20.10;99.90;;;;;;4935296;28;20718;-72
2021/08/10 12:19:32;;;;;;;7.77;7.17;;;20.10;99.90;;;;;;4931726;28;21033;-71
2021/08/10 12:21:58;;;;;;;7.20;6.70;;;20.10;99.90;;;;;;4938526;28;20718;-71
2021/08/10 12:24:25;;;;;;;6.40;5.93;;;20.00;99.90;;;;;;4934025;28;20487;-71
2021/08/10 12:26:52;;;;;;;6.43;5.83;;;20.00;99.90;;;;;;4934027;28;20682;-71
2021/08/10 12:29:17;;;;;;;5.40;5.00;;;19.90;99.90;;;;;;4935023;28;20652;-71
2021/08/10 12:31:46;;;;;;;5.60;5.17;;;19.80;99.90;;;;;;4935908;28;20619;-70
2021/08/10 12:34:12;;;;;;;5.80;5.40;;;19.70;99.90;;;;;;4940275;29;20206;-71
2021/08/10 12:36:53;;;;;;;5.57;5.17;;;19.70;99.90;;;;;;4929181;29;20732;-71
2021/08/10 12:39:20;;;;;;;5.70;5.10;;;19.70;99.90;;;;;;4930574;28;21469;-71
2021/08/10 12:41:46;;;;;;;5.77;5.37;;;19.70;99.90;;;;;;4932530;28;20623;-71
2021/08/10 12:44:12;;;;;;;5.90;5.40;;;19.80;99.90;;;;;;4935073;29;20615;-71
2021/08/10 12:46:39;;;;;;;6.60;5.37;;;19.90;99.90;;;;;;4937956;29;20661;-71
2021/08/10 12:49:13;;;;;;;5.90;5.40;;;20.10;99.90;;;;;;4933580;29;20255;-70
2021/08/10 12:51:56;;;;;;;4.73;4.43;;;20.40;99.90;;;;;;4932348;28;20721;-71
2021/08/10 12:54:23;;;;;;;5.20;4.70;;;20.60;99.90;;;;;;4932851;29;21181;-71
2021/08/10 12:56:48;;;;;;;5.43;4.90;;;20.70;99.90;;;;;;4934773;29;20642;-71